Terminal Aerodrome Forecast
Issued by NWS

Home | Current Version | Previous Version | Text Only | Print | Product List | Glossary On
Versions: 1 2 3 4 5 6 7 8 9 10 11 12 13 14 15 16 17 18 19
000
FTUS42 KMLB 010900 AAA
TAFSFB
TAF AMD
KSFB 010908Z 0109/0206 34003KT P6SM FEW015 BKN060
     FM011400 04005KT P6SM VCSH FEW010 BKN080
     FM012300 04006KT P6SM FEW025 SCT100 SCT250=

USA.gov is the U.S. government's official web portal to all federal, state and local government web resources and services.